KSSF - San Antonio/Stinson, TX, US

Issued at 1721 UTC 29 May 2020
Updated at 2237 UTC 29 May 2020
Potential Impact None Slight Moderate High
Time2153Z 29/23Z 30/00Z 30/01Z 30/02Z 30/03Z 30/04Z 30/05Z 30/06Z 30/07Z 30/08Z 30/09Z 30/10Z 30/11Z>>
Type OBS PRVL PRVL PRVL PRVL PRVL PRVL PRVL PRVL PRVL PRVL PRVL PRVL PRVL
VIS 10 >6 >6 >6 >6 >6 >6 >6 >6 >6 >6 >6 >6 >6
CIG -- -- -- -- -- -- -- -- -- -- -- -- -- --
Cover CLR FEW FEW FEW FEW FEW FEW FEW FEW FEW FEW FEW FEW FEW
FltCat VFR VFR VFR VFR VFR VFR VFR VFR VFR VFR VFR VFR VFR VFR
WX -- -- -- -- -- -- -- -- -- -- -- -- -- --
WDir 60 20 20 20 20 20 20 20 20 20 20 20 20 20
WSpd 10 8 8 8 8 8 8 8 8 8 8 8 8 8
WGst 18 -- -- -- -- -- -- -- -- -- -- -- -- --
Raw TAF
KSSF 291721Z 2918/3018 02008KT P6SM SCT035
  FM292100 02008KT P6SM FEW250
  FM301500 05006KT P6SM FEW250


Raw METAR
KSSF 292153Z 06010G18KT 10SM CLR 30/14 A3005 RMK AO2 SLP164 T03000144 $
KSSF 292053Z 04008KT 10SM FEW060 30/17 A3006 RMK AO2 SLP167 T03000172 58004 $
KSSF 291953Z 06007KT 10SM FEW060 30/17 A3007 RMK AO2 SLP172 T03000172 $

METAR Board
Radar Display
Forecast Discussion
For situational awareness. Not to be used for flight planning purposes.